Time;durP1;ratioP1;P1;durP2;ratioP2;P2;SDS_P1;SDS_P2;PMS_P1;PMS_P2;Temp;Humidity;BMP_temperature;BMP_pressure;BME280_temperature;BME280_humidity;BME280_pressure;Samples;Min_cycle;Max_cycle;Signal;HPM_P1;HPM_P2
2021/11/21 00:06:04;;;;;;;9.13;3.30;;;9.40;99.90;;;;;;20808080;28;20067;-45
2021/11/21 00:16:06;;;;;;;11.38;3.35;;;9.40;99.90;;;;;;20805461;28;20691;-45
2021/11/21 00:26:07;;;;;;;5.75;2.47;;;9.40;99.90;;;;;;20807891;28;20044;-45
2021/11/21 00:36:08;;;;;;;10.05;4.95;;;9.30;99.90;;;;;;20801163;28;20052;-45
2021/11/21 00:46:11;;;;;;;10.80;5.75;;;9.40;99.90;;;;;;20797856;28;20057;-44
2021/11/21 00:56:12;;;;;;;9.68;4.72;;;9.50;99.90;;;;;;20797837;28;20029;-45
2021/11/21 01:06:13;;;;;;;11.13;4.25;;;9.50;99.90;;;;;;20797707;28;20059;-45
2021/11/21 01:16:14;;;;;;;10.40;3.95;;;9.40;99.90;;;;;;20797438;28;20044;-45
2021/11/21 01:26:16;;;;;;;11.45;4.43;;;9.40;99.90;;;;;;20797243;28;20052;-45
2021/11/21 01:36:17;;;;;;;7.03;3.40;;;9.40;99.90;;;;;;20795495;28;20397;-45
2021/11/21 01:46:29;;;;;;;9.32;4.35;;;9.30;99.90;;;;;;20805845;28;20049;-45
2021/11/21 01:56:30;;;;;;;7.97;3.55;;;9.40;99.90;;;;;;20811561;28;20036;-45
2021/11/21 02:06:32;;;;;;;9.10;3.45;;;9.40;99.90;;;;;;20808006;28;20040;-44
2021/11/21 02:16:33;;;;;;;8.88;3.80;;;9.40;99.90;;;;;;20809591;28;20026;-45
2021/11/21 02:26:35;;;;;;;12.35;3.47;;;9.40;99.90;;;;;;20809132;28;20040;-45
2021/11/21 02:36:36;;;;;;;8.43;3.25;;;9.30;99.90;;;;;;20807569;28;20065;-45
2021/11/21 02:46:37;;;;;;;9.55;3.33;;;9.40;99.90;;;;;;20812472;28;20049;-45
2021/11/21 02:56:38;;;;;;;8.93;3.65;;;9.40;99.90;;;;;;20810813;28;20102;-45
2021/11/21 03:06:40;;;;;;;10.48;4.00;;;9.40;99.90;;;;;;20812068;28;20040;-46
2021/11/21 03:16:41;;;;;;;9.10;3.50;;;9.40;99.90;;;;;;20812976;28;20038;-46
2021/11/21 03:26:42;;;;;;;6.25;2.65;;;9.40;99.90;;;;;;20809165;28;20037;-45
2021/11/21 03:36:43;;;;;;;7.32;3.42;;;9.40;99.90;;;;;;21144190;23;20048;-46
2021/11/21 03:46:44;;;;;;;4.93;2.00;;;9.60;99.90;;;;;;20729495;28;20037;-46
2021/11/21 03:56:45;;;;;;;6.47;2.08;;;9.60;99.90;;;;;;20735672;28;20037;-45
2021/11/21 04:06:47;;;;;;;2.45;1.25;;;9.60;99.90;;;;;;20725296;28;20060;-45
2021/11/21 04:16:49;;;;;;;2.10;0.80;;;9.60;99.90;;;;;;20736481;28;20041;-45
2021/11/21 04:26:50;;;;;;;1.83;0.80;;;9.60;99.90;;;;;;20734677;28;20044;-45
2021/11/21 04:36:54;;;;;;;1.65;0.43;;;9.60;99.90;;;;;;20727941;28;20052;-45
2021/11/21 04:46:55;;;;;;;1.33;0.40;;;9.60;99.90;;;;;;20731672;28;20127;-45
2021/11/21 04:56:56;;;;;;;1.80;0.35;;;9.60;99.90;;;;;;20727081;28;20065;-45
2021/11/21 05:06:57;;;;;;;5.55;0.32;;;9.50;99.90;;;;;;20724398;28;20046;-45
2021/11/21 05:17:00;;;;;;;0.63;0.20;;;9.50;99.90;;;;;;20733196;28;20044;-45
2021/11/21 05:27:01;;;;;;;0.70;0.13;;;9.40;99.90;;;;;;20745745;28;20033;-45
2021/11/21 05:37:04;;;;;;;2.33;0.20;;;9.40;99.90;;;;;;20742068;28;20054;-45
2021/11/21 05:47:06;;;;;;;3.72;0.20;;;9.30;99.90;;;;;;20742477;28;20056;-45
2021/11/21 05:57:07;;;;;;;0.77;0.22;;;9.30;99.90;;;;;;20741132;28;20220;-45
2021/11/21 06:07:10;;;;;;;0.35;0.10;;;9.20;99.90;;;;;;20738816;28;20056;-45
2021/11/21 06:17:12;;;;;;;0.70;0.28;;;9.20;99.90;;;;;;20739600;28;20109;-45
2021/11/21 06:27:14;;;;;;;0.40;0.15;;;9.20;99.90;;;;;;20735727;28;20049;-45
2021/11/21 06:37:15;;;;;;;2.08;0.43;;;9.20;99.90;;;;;;20735462;28;20202;-45
2021/11/21 06:47:18;;;;;;;1.33;0.17;;;9.10;99.90;;;;;;20737660;28;20138;-45
2021/11/21 06:57:20;;;;;;;1.35;0.15;;;9.00;99.90;;;;;;20739289;28;20042;-45
2021/11/21 07:07:22;;;;;;;0.90;0.20;;;9.00;99.90;;;;;;20735835;28;20042;-45
2021/11/21 07:17:23;;;;;;;0.85;0.20;;;8.90;99.90;;;;;;20732618;28;20021;-45
2021/11/21 07:27:24;;;;;;;1.58;0.10;;;8.70;99.90;;;;;;20732456;28;20029;-44
2021/11/21 07:37:25;;;;;;;1.98;0.08;;;8.70;99.90;;;;;;20729686;28;20037;-45
2021/11/21 07:47:27;;;;;;;1.55;0.20;;;8.50;99.90;;;;;;20730284;28;22304;-45
2021/11/21 07:57:28;;;;;;;4.53;0.40;;;8.30;99.90;;;;;;20726378;28;20040;-45
2021/11/21 08:07:29;;;;;;;4.05;0.43;;;8.10;99.90;;;;;;20729847;28;20045;-45
2021/11/21 08:17:30;;;;;;;0.17;0.00;;;8.00;99.90;;;;;;20734129;28;20404;-45
2021/11/21 08:27:31;;;;;;;2.13;0.28;;;7.70;99.90;;;;;;20733052;28;20030;-45
2021/11/21 08:37:34;;;;;;;0.35;0.10;;;7.70;99.90;;;;;;20730346;28;20046;-44
2021/11/21 08:47:36;;;;;;;0.32;0.10;;;7.60;99.90;;;;;;20692837;28;20025;-45
2021/11/21 08:57:37;;;;;;;3.58;1.05;;;7.60;99.90;;;;;;20726678;28;20033;-45
2021/11/21 09:07:40;;;;;;;4.18;0.40;;;7.80;99.90;;;;;;20718213;28;20527;-45
2021/11/21 09:17:43;;;;;;;2.25;0.40;;;8.20;99.90;;;;;;20719223;28;20037;-45
2021/11/21 09:27:44;;;;;;;2.70;0.40;;;8.50;99.90;;;;;;20709786;28;20038;-45
2021/11/21 09:37:46;;;;;;;6.18;0.60;;;8.70;99.90;;;;;;20720486;28;20049;-45
2021/11/21 09:47:55;;;;;;;2.95;0.68;;;8.80;99.90;;;;;;20691359;28;20304;-45
2021/11/21 09:57:57;;;;;;;4.82;0.90;;;8.90;99.90;;;;;;20708121;28;20042;-45
2021/11/21 10:08:02;;;;;;;3.67;0.60;;;9.00;99.90;;;;;;20736966;28;20124;-44
2021/11/21 10:18:03;;;;;;;3.20;0.63;;;9.20;99.90;;;;;;20735482;28;20056;-45
2021/11/21 10:28:11;;;;;;;1.85;0.20;;;9.40;99.90;;;;;;20702686;28;20054;-45
2021/11/21 10:38:13;;;;;;;1.38;0.10;;;9.70;99.90;;;;;;20694856;28;20458;-45
2021/11/21 10:48:24;;;;;;;0.57;0.10;;;10.10;99.90;;;;;;20733989;28;20041;-45
2021/11/21 10:58:27;;;;;;;2.53;0.20;;;10.30;99.90;;;;;;20729850;28;20050;-45
2021/11/21 11:08:31;;;;;;;3.35;0.25;;;10.80;99.90;;;;;;20738149;28;20052;-45
2021/11/21 11:18:32;;;;;;;3.20;0.20;;;11.40;99.90;;;;;;20732862;28;20044;-44
2021/11/21 11:28:39;;;;;;;1.92;0.20;;;11.60;99.90;;;;;;20724039;28;21051;-44
2021/11/21 11:38:40;;;;;;;2.05;0.10;;;10.80;99.90;;;;;;20738118;28;20531;-44
2021/11/21 11:48:58;;;;;;;0.57;0.15;;;11.10;99.90;;;;;;20735361;28;20199;-44
2021/11/21 11:59:04;;;;;;;1.00;0.30;;;10.50;99.90;;;;;;20731481;28;20053;-45
2021/11/21 12:09:26;;;;;;;6.22;1.00;;;11.10;99.90;;;;;;20733472;28;21400;-45
2021/11/21 12:19:49;;;;;;;7.35;0.85;;;12.20;99.90;;;;;;20734680;28;20409;-45
2021/11/21 12:30:19;;;;;;;1.55;0.55;;;12.40;99.90;;;;;;20735256;28;20400;-45
2021/11/21 12:40:33;;;;;;;0.52;0.03;;;12.80;99.90;;;;;;20721449;28;20064;-44
2021/11/21 12:50:49;;;;;;;0.70;0.55;;;12.90;99.90;;;;;;20730298;28;20049;-44
2021/11/21 13:00:52;;;;;;;1.40;0.10;;;12.70;99.90;;;;;;20738278;28;20049;-44
2021/11/21 13:10:56;;;;;;;2.08;0.20;;;12.70;99.90;;;;;;20683377;28;21958;-44
2021/11/21 13:21:14;;;;;;;1.08;0.10;;;12.90;99.90;;;;;;20726982;28;20042;-45
2021/11/21 13:31:39;;;;;;;1.00;0.10;;;13.10;99.90;;;;;;20719013;28;20045;-44
2021/11/21 13:41:52;;;;;;;1.17;0.75;;;12.40;99.90;;;;;;20749737;28;20053;-45
2021/11/21 13:52:07;;;;;;;4.25;0.45;;;11.60;99.90;;;;;;20740473;28;20040;-45
2021/11/21 14:02:08;;;;;;;0.17;0.03;;;11.00;99.90;;;;;;20743252;28;21513;-45
2021/11/21 14:12:09;;;;;;;3.78;0.98;;;10.40;99.90;;;;;;20739587;28;20419;-45
2021/11/21 14:22:13;;;;;;;1.05;0.32;;;10.10;99.90;;;;;;20741557;28;20045;-45
2021/11/21 14:32:15;;;;;;;2.53;0.20;;;9.90;99.90;;;;;;20721886;28;20037;-45
2021/11/21 14:42:24;;;;;;;0.68;0.17;;;9.80;99.90;;;;;;20742041;28;20458;-45
2021/11/21 14:52:27;;;;;;;2.92;0.30;;;9.60;99.90;;;;;;20737351;28;20706;-45
2021/11/21 15:02:28;;;;;;;4.32;0.32;;;9.60;99.90;;;;;;20722624;28;20033;-45
2021/11/21 15:12:29;;;;;;;1.95;0.57;;;9.40;99.90;;;;;;20745061;28;20030;-45
2021/11/21 15:22:30;;;;;;;1.95;0.35;;;9.40;99.90;;;;;;20737472;28;20049;-45
2021/11/21 15:32:38;;;;;;;1.65;0.40;;;9.20;99.90;;;;;;20749673;28;20042;-45
2021/11/21 15:42:39;;;;;;;2.08;0.60;;;9.00;99.90;;;;;;20738480;28;20724;-45
2021/11/21 15:52:41;;;;;;;2.35;0.20;;;8.90;99.90;;;;;;20733203;28;20064;-45
2021/11/21 16:02:42;;;;;;;3.47;1.40;;;8.80;99.90;;;;;;20736368;28;20490;-45
2021/11/21 16:12:44;;;;;;;2.63;0.47;;;8.60;99.90;;;;;;20738131;28;20461;-45
2021/11/21 16:22:47;;;;;;;3.92;0.55;;;8.50;99.90;;;;;;20741282;28;20454;-45
2021/11/21 16:32:48;;;;;;;1.23;0.50;;;8.40;99.90;;;;;;20737202;28;20046;-45
2021/11/21 16:42:50;;;;;;;4.38;0.65;;;8.30;99.90;;;;;;20738560;28;20048;-45
2021/11/21 16:52:52;;;;;;;3.45;0.77;;;8.20;99.90;;;;;;20734426;28;20033;-45
2021/11/21 17:02:53;;;;;;;0.75;0.35;;;8.10;99.90;;;;;;20731437;28;20382;-45
2021/11/21 17:12:54;;;;;;;1.27;0.35;;;8.10;99.90;;;;;;20741776;28;20034;-45
2021/11/21 17:22:58;;;;;;;1.02;0.40;;;8.00;99.90;;;;;;20750856;28;20088;-45
2021/11/21 17:32:59;;;;;;;2.88;0.93;;;7.90;99.90;;;;;;20744064;28;20054;-45
2021/11/21 17:43:02;;;;;;;2.22;0.50;;;7.80;99.90;;;;;;20739783;28;20037;-45
2021/11/21 17:53:04;;;;;;;2.60;0.60;;;7.70;99.90;;;;;;20746967;28;20045;-45
2021/11/21 18:03:05;;;;;;;3.28;1.00;;;7.60;99.90;;;;;;20741680;28;20033;-45
2021/11/21 18:13:06;;;;;;;6.90;1.27;;;7.50;99.90;;;;;;20737379;28;20468;-45
2021/11/21 18:23:08;;;;;;;2.75;0.70;;;7.40;99.90;;;;;;20739515;28;20053;-45
2021/11/21 18:33:09;;;;;;;5.45;1.20;;;7.30;99.90;;;;;;20760976;28;20052;-45
2021/11/21 18:43:11;;;;;;;7.95;1.90;;;7.20;99.90;;;;;;20766461;28;20045;-45
2021/11/21 18:53:16;;;;;;;10.43;1.30;;;7.10;99.90;;;;;;20768712;28;20045;-45
2021/11/21 19:03:20;;;;;;;4.50;1.20;;;7.00;99.90;;;;;;20773118;28;20129;-46
2021/11/21 19:13:22;;;;;;;2.33;0.70;;;6.90;99.90;;;;;;20762358;28;20033;-45
2021/11/21 19:23:26;;;;;;;3.75;0.40;;;6.80;99.90;;;;;;20751628;28;20037;-45
2021/11/21 19:33:28;;;;;;;4.55;0.93;;;6.70;99.90;;;;;;20770280;28;20046;-45
2021/11/21 19:43:29;;;;;;;4.72;0.50;;;6.70;99.90;;;;;;20768890;28;20576;-45
2021/11/21 19:53:30;;;;;;;4.40;0.73;;;6.60;99.90;;;;;;20749920;28;20047;-45
2021/11/21 20:03:31;;;;;;;4.47;0.40;;;6.70;99.90;;;;;;20767230;28;20044;-45
2021/11/21 20:13:32;;;;;;;1.73;0.57;;;6.80;99.90;;;;;;20760258;28;20087;-45
2021/11/21 20:23:34;;;;;;;1.75;0.68;;;6.90;99.90;;;;;;20757740;28;20042;-45
2021/11/21 20:43:56;;;;;;;1.02;0.30;;;7.00;99.90;;;;;;20767470;28;20515;-45
2021/11/21 20:54:00;;;;;;;2.35;0.32;;;7.10;99.90;;;;;;20764865;28;20397;-45
2021/11/21 21:04:02;;;;;;;6.82;0.77;;;7.10;99.90;;;;;;20759911;28;20053;-45
2021/11/21 21:14:04;;;;;;;3.40;1.30;;;7.20;99.90;;;;;;20743286;28;20064;-45
2021/11/21 21:24:06;;;;;;;3.58;0.57;;;7.10;99.90;;;;;;20726274;28;20449;-45
2021/11/21 21:34:08;;;;;;;0.50;0.10;;;7.10;99.90;;;;;;20723237;28;21466;-45
2021/11/21 21:44:10;;;;;;;1.60;0.43;;;7.00;99.90;;;;;;20727709;28;20046;-45
2021/11/21 21:54:12;;;;;;;2.50;0.47;;;7.00;99.90;;;;;;20728454;28;20048;-45
2021/11/21 22:04:13;;;;;;;3.10;0.70;;;7.00;99.90;;;;;;20741276;28;20046;-45
2021/11/21 22:14:14;;;;;;;0.68;0.20;;;7.00;99.90;;;;;;20738773;28;20045;-45
2021/11/21 22:24:16;;;;;;;3.13;0.40;;;7.10;99.90;;;;;;20745304;28;20769;-45
2021/11/21 22:34:17;;;;;;;0.32;0.10;;;7.30;99.90;;;;;;20740415;28;20053;-45
2021/11/21 22:44:18;;;;;;;1.23;0.17;;;7.40;99.90;;;;;;20732829;28;20038;-45
2021/11/21 22:54:20;;;;;;;1.92;0.22;;;7.30;99.90;;;;;;20730388;28;20417;-45
2021/11/21 23:04:21;;;;;;;0.20;0.10;;;7.40;99.90;;;;;;20733420;28;20046;-45
2021/11/21 23:14:23;;;;;;;1.23;0.17;;;7.40;99.90;;;;;;20715947;28;20037;-45
2021/11/21 23:24:24;;;;;;;2.20;0.30;;;7.30;99.90;;;;;;20731905;28;20044;-45
2021/11/21 23:34:25;;;;;;;1.65;0.10;;;7.20;99.90;;;;;;20730447;28;20050;-45
2021/11/21 23:44:27;;;;;;;0.50;0.30;;;7.20;99.90;;;;;;20726979;28;20068;-45
2021/11/21 23:54:28;;;;;;;0.13;0.00;;;7.10;99.90;;;;;;20726664;28;20046;-45
